Time;durP1;ratioP1;P1;durP2;ratioP2;P2;SDS_P1;SDS_P2;PMS_P1;PMS_P2;Temp;Humidity;BMP_temperature;BMP_pressure;BME280_temperature;BME280_humidity;BME280_pressure;Samples;Min_cycle;Max_cycle;Signal;HPM_P1;HPM_P2
2021/09/19 00:02:22;;;;;;;13.03;7.53;;;;;;;17.23;74.85;99313.00;1696370;83;21061;-59
2021/09/19 00:04:49;;;;;;;8.35;7.15;;;;;;;17.19;74.90;99311.95;1719143;82;21002;-59
2021/09/19 00:07:16;;;;;;;9.50;6.97;;;;;;;17.15;74.92;99312.53;1700547;82;20899;-59
2021/09/19 00:09:44;;;;;;;12.03;7.77;;;;;;;17.14;74.95;99312.83;1682409;84;20934;-60
2021/09/19 00:12:12;;;;;;;11.00;7.97;;;;;;;17.10;75.02;99315.28;1681585;85;21507;-59
2021/09/19 00:14:40;;;;;;;11.20;7.55;;;;;;;17.09;75.05;99318.28;1682679;85;20879;-59
2021/09/19 00:17:08;;;;;;;12.85;6.60;;;;;;;17.06;75.05;99314.79;1682013;85;20954;-58
2021/09/19 00:19:36;;;;;;;11.73;7.40;;;;;;;17.03;75.03;99312.10;1682452;85;21018;-59
2021/09/19 00:22:03;;;;;;;11.40;6.97;;;;;;;16.99;75.13;99310.53;1661446;85;21085;-59
2021/09/19 00:24:32;;;;;;;11.10;6.65;;;;;;;16.97;75.16;99309.20;1681544;85;21091;-59
2021/09/19 00:27:00;;;;;;;8.90;6.35;;;;;;;16.95;75.17;99317.60;1680907;85;20998;-59
2021/09/19 00:29:27;;;;;;;10.70;6.35;;;;;;;16.94;75.17;99312.48;1682191;85;21010;-59
2021/09/19 00:31:55;;;;;;;9.25;6.65;;;;;;;16.92;75.15;99308.70;1688997;83;21049;-60
2021/09/19 00:34:23;;;;;;;9.58;5.17;;;;;;;16.90;75.20;99312.78;1691136;83;21002;-59
2021/09/19 00:36:50;;;;;;;8.75;6.08;;;;;;;16.88;75.21;99315.77;1686612;83;21114;-58
2021/09/19 00:39:18;;;;;;;6.58;5.67;;;;;;;16.86;75.17;99314.41;1691517;83;20851;-59
2021/09/19 00:41:45;;;;;;;6.47;5.00;;;;;;;16.85;75.16;99310.91;1681912;85;20938;-59
2021/09/19 00:44:13;;;;;;;11.93;5.97;;;;;;;16.84;75.09;99308.48;1682492;85;21098;-59
2021/09/19 00:46:40;;;;;;;6.20;5.22;;;;;;;16.82;75.10;99312.27;1682395;85;21033;-59
2021/09/19 00:49:08;;;;;;;8.33;4.83;;;;;;;16.81;75.10;99310.68;1683379;83;21150;-59
2021/09/19 00:51:35;;;;;;;8.83;4.92;;;;;;;16.82;74.99;99311.48;1683870;83;21045;-59
2021/09/19 00:54:03;;;;;;;9.75;4.80;;;;;;;16.82;74.93;99312.83;1683485;83;20974;-58
2021/09/19 00:56:32;;;;;;;5.33;4.42;;;;;;;16.81;74.74;99305.27;1683027;83;21014;-58
2021/09/19 00:59:02;;;;;;;7.30;4.72;;;;;;;16.82;74.61;99310.92;1679719;83;20887;-59
2021/09/19 01:01:30;;;;;;;6.62;4.75;;;;;;;16.80;74.56;99311.77;1683855;83;21941;-58
2021/09/19 01:03:58;;;;;;;6.12;4.65;;;;;;;16.78;74.41;99304.48;1689928;83;20859;-58
2021/09/19 01:06:27;;;;;;;4.90;4.42;;;;;;;16.74;74.29;99304.79;1688276;83;21038;-58
2021/09/19 01:08:53;;;;;;;;;;;;;;;16.71;74.10;99304.02;1723082;82;21015;-59
2021/09/19 01:11:20;;;;;;;6.85;4.55;;;;;;;16.66;74.06;99303.24;1722328;82;20113;-60
2021/09/19 01:13:49;;;;;;;;;;;;;;;16.60;74.02;99299.21;1721299;82;21154;-58
2021/09/19 01:16:18;;;;;;;6.55;4.78;;;;;;;16.56;74.02;99298.19;1696427;83;20224;-58
2021/09/19 01:18:47;;;;;;;7.67;4.50;;;;;;;16.49;74.08;99307.17;1725202;82;20935;-59
2021/09/19 01:21:16;;;;;;;6.80;4.10;;;;;;;16.47;74.16;99305.28;1726467;82;20896;-58
2021/09/19 01:24:03;;;;;;;7.55;4.58;;;;;;;16.45;74.20;99304.77;1720534;82;20943;-60
2021/09/19 01:26:31;;;;;;;12.35;4.97;;;;;;;16.41;74.10;99300.45;1716984;83;21108;-59
2021/09/19 01:28:58;;;;;;;9.73;4.65;;;;;;;16.41;74.06;99303.16;1718599;82;21034;-59
2021/09/19 01:31:28;;;;;;;6.17;4.55;;;;;;;16.41;74.05;99303.16;1721318;82;20899;-59
2021/09/19 01:33:57;;;;;;;10.28;4.97;;;;;;;16.42;73.95;99303.98;1721214;82;20911;-58
2021/09/19 01:36:23;;;;;;;6.37;4.97;;;;;;;16.44;73.92;99300.44;1718894;82;21007;-59
2021/09/19 01:38:51;;;;;;;7.65;5.53;;;;;;;16.45;73.90;99303.41;1718214;82;21157;-58
2021/09/19 01:41:20;;;;;;;;;;;;;;;16.43;73.87;99315.87;1719662;83;20903;-58
2021/09/19 01:43:47;;;;;;;11.05;5.50;;;;;;;16.42;73.96;99312.09;1715183;83;20097;-58
2021/09/19 01:46:15;;;;;;;10.58;5.58;;;;;;;16.39;74.00;99303.20;1717243;83;20995;-57
2021/09/19 01:48:42;;;;;;;10.85;5.17;;;;;;;16.37;73.99;99311.59;1716483;83;21024;-59
2021/09/19 01:51:09;;;;;;;9.30;5.78;;;;;;;16.36;74.09;99312.67;1717083;83;21830;-58
2021/09/19 01:53:39;;;;;;;11.88;6.90;;;;;;;16.35;74.01;99319.16;1714246;83;21556;-58
2021/09/19 01:56:07;;;;;;;8.63;7.03;;;;;;;16.36;74.04;99319.99;1712260;83;21002;-58
2021/09/19 01:58:48;;;;;;;10.93;7.20;;;;;;;16.37;74.10;99332.41;1716820;83;21047;-60
2021/09/19 02:01:21;;;;;;;9.08;7.05;;;;;;;16.37;74.09;99337.28;1693704;83;21556;-58
2021/09/19 02:03:46;;;;;;;10.75;7.30;;;;;;;16.37;74.19;99337.81;1712250;83;21794;-59
2021/09/19 02:06:13;;;;;;;9.23;7.60;;;;;;;16.38;74.18;99340.79;1716385;83;21022;-58
2021/09/19 02:08:42;;;;;;;11.65;8.60;;;;;;;16.37;74.17;99339.16;1712129;83;20939;-58
2021/09/19 02:11:13;;;;;;;11.90;8.57;;;;;;;16.36;74.12;99346.48;1716953;82;21445;-58
2021/09/19 02:13:42;;;;;;;13.38;8.90;;;;;;;16.33;74.21;99349.75;1716457;83;20923;-59
2021/09/19 02:16:09;;;;;;;13.37;9.00;;;;;;;16.32;74.33;99350.03;1711423;83;21161;-58
2021/09/19 02:18:37;;;;;;;;;;;;;;;16.32;74.43;99350.03;1716442;83;20911;-58
2021/09/19 02:21:06;;;;;;;12.60;9.48;;;;;;;16.32;74.57;99341.92;1717109;83;20105;-58
2021/09/19 02:23:34;;;;;;;13.10;10.20;;;;;;;16.32;74.58;99347.33;1714130;83;21485;-59
2021/09/19 02:26:01;;;;;;;14.25;10.53;;;;;;;16.30;74.58;99348.96;1723147;82;21054;-59
2021/09/19 02:28:30;;;;;;;15.40;10.48;;;;;;;16.27;74.69;99354.38;1717067;83;20950;-60
2021/09/19 02:30:59;;;;;;;18.92;10.00;;;;;;;16.25;74.93;99351.16;1721317;82;20990;-58
2021/09/19 02:33:28;;;;;;;20.62;10.23;;;;;;;16.28;75.00;99351.95;1716893;83;21041;-59
2021/09/19 02:35:55;;;;;;;18.10;10.28;;;;;;;16.33;74.90;99354.33;1726595;82;20950;-59
2021/09/19 02:38:22;;;;;;;19.35;10.78;;;;;;;16.34;74.74;99355.95;1718047;82;21057;-58
2021/09/19 02:40:53;;;;;;;15.15;8.98;;;;;;;16.34;74.55;99355.44;1715921;83;20920;-58
2021/09/19 02:43:22;;;;;;;17.60;8.10;;;;;;;16.29;74.46;99356.25;1717041;83;22092;-58
2021/09/19 02:45:51;;;;;;;15.30;8.23;;;;;;;16.29;74.26;99356.25;1716387;83;21409;-58
2021/09/19 02:48:20;;;;;;;8.55;6.00;;;;;;;16.28;73.80;99360.06;1716457;83;20871;-58
2021/09/19 02:50:47;;;;;;;9.75;5.85;;;;;;;16.25;73.45;99353.03;1717269;83;20942;-59
2021/09/19 02:53:14;;;;;;;12.82;6.20;;;;;;;16.21;72.76;99347.92;1716798;83;21158;-58
2021/09/19 02:55:42;;;;;;;10.85;5.25;;;;;;;16.11;72.35;99346.91;1716836;83;20943;-58
2021/09/19 02:58:09;;;;;;;8.88;4.40;;;;;;;16.04;72.40;99356.41;1712398;83;20939;-58
2021/09/19 03:00:37;;;;;;;;;;;;;;;16.02;72.14;99358.05;1693045;83;20943;-58
2021/09/19 03:03:04;;;;;;;5.05;4.05;;;;;;;15.98;71.76;99356.98;1715599;83;20097;-58
2021/09/19 03:05:33;;;;;;;;;;;;;;;15.90;71.58;99355.67;1694455;83;21033;-59
2021/09/19 03:07:59;;;;;;;6.08;3.45;;;;;;;15.87;71.42;99355.41;1717008;83;20181;-57
2021/09/19 03:10:26;;;;;;;4.97;3.00;;;;;;;15.81;71.06;99361.92;1716460;82;20967;-58
2021/09/19 03:12:53;;;;;;;6.08;3.50;;;;;;;15.73;71.22;99358.68;1717027;83;21038;-58
2021/09/19 03:15:22;;;;;;;13.78;3.87;;;;;;;15.72;71.24;99356.25;1697213;83;21085;-58
2021/09/19 03:17:49;;;;;;;7.37;3.22;;;;;;;15.73;71.17;99364.09;1716971;83;21150;-57
2021/09/19 03:20:16;;;;;;;6.15;3.72;;;;;;;15.73;71.05;99360.03;1717103;83;20943;-58
2021/09/19 03:22:44;;;;;;;10.10;3.87;;;;;;;15.76;70.95;99357.33;1723697;82;20915;-59
2021/09/19 03:25:14;;;;;;;6.50;3.50;;;;;;;15.80;70.90;99366.53;1721273;82;20998;-58
2021/09/19 03:27:41;;;;;;;5.07;3.03;;;;;;;15.83;70.87;99365.98;1724106;82;21010;-58
2021/09/19 03:30:10;;;;;;;4.45;3.10;;;;;;;15.83;70.33;99367.87;1717209;83;21120;-58
2021/09/19 03:32:37;;;;;;;4.40;3.10;;;;;;;15.72;70.20;99368.41;1718228;82;29179;-57
2021/09/19 03:35:05;;;;;;;4.30;3.10;;;;;;;15.67;70.49;99361.14;1716554;83;21003;-59
2021/09/19 03:37:33;;;;;;;7.47;3.12;;;;;;;15.69;70.45;99364.36;1716588;83;21082;-59
2021/09/19 03:40:00;;;;;;;4.78;2.90;;;;;;;15.69;70.13;99361.66;1721559;82;21010;-57
2021/09/19 03:42:28;;;;;;;4.97;2.85;;;;;;;15.66;70.04;99359.52;1716442;83;21137;-59
2021/09/19 03:44:57;;;;;;;4.12;3.27;;;;;;;15.66;69.98;99349.27;1715977;83;20931;-58
2021/09/19 03:47:23;;;;;;;4.75;2.95;;;;;;;15.63;69.92;99352.52;1716872;83;21075;-58
2021/09/19 03:49:51;;;;;;;7.78;3.12;;;;;;;15.56;70.11;99349.58;1716439;83;20966;-59
2021/09/19 03:52:18;;;;;;;7.30;4.05;;;;;;;15.55;70.28;99347.16;1716768;83;20987;-57
2021/09/19 03:54:47;;;;;;;;;;;;;;;15.59;70.13;99353.59;1719342;83;20899;-58
2021/09/19 03:57:14;;;;;;;8.38;3.75;;;;;;;15.61;70.08;99354.70;1716942;83;20212;-58
2021/09/19 03:59:43;;;;;;;5.97;3.15;;;;;;;15.61;70.14;99351.45;1715660;83;20916;-59
2021/09/19 04:02:10;;;;;;;7.53;3.60;;;;;;;15.66;70.17;99353.31;1716022;83;21021;-58
2021/09/19 04:04:37;;;;;;;5.92;3.72;;;;;;;15.71;69.99;99356.81;1687716;83;21006;-58
2021/09/19 04:07:05;;;;;;;6.70;4.37;;;;;;;15.78;70.00;99352.47;1716616;83;21053;-58
2021/09/19 04:09:34;;;;;;;8.13;2.97;;;;;;;15.84;69.70;99356.80;1716097;82;21014;-60
2021/09/19 04:12:02;;;;;;;6.45;3.70;;;;;;;15.90;69.48;99357.55;1716774;83;20991;-59
2021/09/19 04:14:29;;;;;;;5.80;3.25;;;;;;;15.95;69.33;99357.55;1716370;83;21465;-57
2021/09/19 04:16:56;;;;;;;4.78;3.05;;;;;;;16.00;69.28;99359.41;1716374;83;20994;-59
2021/09/19 04:19:23;;;;;;;6.77;3.50;;;;;;;16.02;69.01;99355.87;1717297;83;21084;-59
2021/09/19 04:21:52;;;;;;;4.08;3.25;;;;;;;16.05;68.87;99358.84;1696554;83;21022;-60
2021/09/19 04:24:19;;;;;;;4.90;3.10;;;;;;;16.07;68.87;99358.00;1715583;83;20939;-59
2021/09/19 04:26:46;;;;;;;6.03;3.52;;;;;;;16.07;69.06;99360.70;1716616;83;20995;-60
2021/09/19 04:29:13;;;;;;;7.35;3.20;;;;;;;16.08;69.28;99361.53;1721048;83;20994;-57
2021/09/19 04:31:41;;;;;;;;;;;;;;;16.09;69.34;99361.25;1717296;83;21090;-58
2021/09/19 04:34:10;;;;;;;;;;;;;;;16.13;69.55;99366.10;1719147;83;20125;-58
2021/09/19 04:36:38;;;;;;;9.58;3.30;;;;;;;16.22;69.57;99362.51;1716580;83;20148;-59
2021/09/19 04:39:05;;;;;;;9.60;3.05;;;;;;;16.85;69.68;99370.45;1716509;83;20990;-60
2021/09/19 04:41:32;;;;;;;5.03;2.85;;;;;;;18.03;67.08;99355.67;1716753;83;20978;-58
2021/09/19 04:44:01;;;;;;;5.00;3.10;;;;;;;19.37;63.37;99360.84;1716773;83;21465;-58
2021/09/19 04:46:28;;;;;;;5.03;2.90;;;;;;;20.67;59.39;99355.66;1713238;83;20955;-59
2021/09/19 04:48:57;;;;;;;4.72;2.52;;;;;;;21.80;55.93;99359.48;1717124;83;21477;-59
2021/09/19 04:51:24;;;;;;;2.92;2.62;;;;;;;22.82;52.75;99359.61;1716389;83;20954;-59
2021/09/19 04:53:51;;;;;;;4.13;2.87;;;;;;;23.72;49.99;99363.89;1717078;83;20887;-58
2021/09/19 04:56:19;;;;;;;5.92;3.20;;;;;;;24.19;47.99;99358.30;1714005;83;21822;-58
2021/09/19 04:58:47;;;;;;;;;;;;;;;24.10;47.36;99367.94;1718910;83;21050;-58
2021/09/19 05:01:14;;;;;;;5.25;2.70;;;;;;;24.17;47.22;99367.39;1716235;83;20149;-58
2021/09/19 05:03:42;;;;;;;11.43;2.77;;;;;;;24.59;46.21;99367.98;1715859;83;21034;-59
2021/09/19 05:06:10;;;;;;;6.17;3.08;;;;;;;25.13;45.02;99376.13;1690289;83;20943;-59
2021/09/19 05:08:37;;;;;;;7.28;3.65;;;;;;;25.60;43.66;99364.53;1708048;83;21144;-59
2021/09/19 05:11:04;;;;;;;7.55;4.22;;;;;;;25.91;42.87;99365.29;1681891;85;21046;-59
2021/09/19 05:13:33;;;;;;;4.78;3.42;;;;;;;26.29;42.06;99364.67;1681509;85;21006;-59
2021/09/19 05:16:00;;;;;;;9.40;4.47;;;;;;;26.85;41.14;99366.64;1660081;85;20962;-58
2021/09/19 05:18:28;;;;;;;9.13;4.05;;;;;;;27.51;39.80;99370.69;1679066;85;21430;-58
2021/09/19 05:20:55;;;;;;;6.78;4.58;;;;;;;28.12;38.60;99369.36;1682270;85;21114;-59
2021/09/19 05:23:22;;;;;;;6.87;4.40;;;;;;;28.71;37.40;99371.33;1682009;85;21350;-61
2021/09/19 05:25:49;;;;;;;;;;;;;;;29.24;36.46;99380.38;1684327;85;21748;-60
2021/09/19 05:28:17;;;;;;;6.62;3.70;;;;;;;29.75;35.20;99374.48;1682007;85;20174;-59
2021/09/19 05:30:44;;;;;;;9.05;3.72;;;;;;;30.18;34.31;99372.94;1682326;85;21014;-59
2021/09/19 05:33:12;;;;;;;3.70;3.05;;;;;;;30.63;34.11;99376.67;1682332;85;21082;-58
2021/09/19 05:35:39;;;;;;;8.33;3.15;;;;;;;31.11;33.48;99371.87;1660247;85;20844;-58
2021/09/19 05:38:07;;;;;;;6.87;3.72;;;;;;;31.59;32.30;99366.92;1682285;85;20994;-59
2021/09/19 05:40:34;;;;;;;6.42;2.90;;;;;;;31.73;31.52;99366.22;1681834;85;20994;-59
2021/09/19 05:43:02;;;;;;;4.35;3.05;;;;;;;31.59;31.89;99365.54;1682253;85;20899;-59
2021/09/19 05:45:29;;;;;;;;;;;;;;;31.30;31.80;99366.66;1684952;85;21101;-59
2021/09/19 05:47:56;;;;;;;3.02;2.25;;;;;;;30.96;32.21;99368.71;1682496;85;20085;-59
2021/09/19 05:50:25;;;;;;;5.12;2.58;;;;;;;30.81;32.78;99356.12;1681843;85;21076;-59
2021/09/19 05:52:52;;;;;;;4.00;2.98;;;;;;;31.15;31.26;99359.44;1682167;85;21548;-59
2021/09/19 05:55:20;;;;;;;5.67;2.85;;;;;;;31.31;31.17;99357.19;1682492;85;20939;-58
2021/09/19 05:57:48;;;;;;;5.47;2.85;;;;;;;31.25;31.55;99353.20;1681882;85;22349;-59
2021/09/19 06:00:16;;;;;;;6.80;2.70;;;;;;;30.87;31.96;99355.98;1682455;85;20958;-59
2021/09/19 06:02:45;;;;;;;5.12;3.30;;;;;;;30.21;32.30;99361.13;1679712;85;21047;-58
2021/09/19 06:05:12;;;;;;;;;;;;;;;29.26;33.52;99367.82;1680692;85;20978;-59
2021/09/19 06:07:41;;;;;;;4.78;3.10;;;;;;;28.31;34.63;99371.89;1677595;85;20085;-60
2021/09/19 06:10:09;;;;;;;4.92;3.47;;;;;;;27.36;36.10;99371.52;1686473;83;21097;-60
2021/09/19 06:12:38;;;;;;;3.25;2.80;;;;;;;26.45;37.74;99373.77;1720923;83;21605;-58
2021/09/19 06:15:08;;;;;;;4.97;3.20;;;;;;;25.62;38.92;99374.60;1716461;83;21003;-58
2021/09/19 06:17:35;;;;;;;4.72;3.47;;;;;;;24.87;40.48;99376.95;1714362;83;20967;-60
2021/09/19 06:20:05;;;;;;;3.90;3.50;;;;;;;24.18;41.95;99374.47;1712613;83;21516;-59
2021/09/19 06:22:33;;;;;;;5.58;3.10;;;;;;;23.59;43.58;99371.19;1717059;83;20942;-58
2021/09/19 06:25:00;;;;;;;6.85;3.50;;;;;;;23.10;44.70;99371.55;1716023;83;21552;-58
2021/09/19 06:27:29;;;;;;;4.33;3.70;;;;;;;22.75;45.81;99374.33;1716614;83;20903;-59
2021/09/19 06:29:56;;;;;;;4.72;3.70;;;;;;;22.48;46.68;99374.92;1716196;83;21011;-59
2021/09/19 06:32:23;;;;;;;5.85;3.75;;;;;;;22.50;47.21;99372.66;1716748;83;21030;-59
2021/09/19 06:34:51;;;;;;;5.00;3.47;;;;;;;23.30;46.95;99378.22;1716361;83;21142;-59
2021/09/19 06:37:18;;;;;;;5.47;3.00;;;;;;;24.70;44.00;99382.05;1716703;83;21085;-59
2021/09/19 06:39:45;;;;;;;4.42;2.70;;;;;;;26.11;41.32;99377.30;1716740;83;21089;-59
2021/09/19 06:42:15;;;;;;;4.67;2.80;;;;;;;27.34;38.96;99380.12;1696965;83;20958;-59
2021/09/19 06:44:42;;;;;;;4.87;3.17;;;;;;;28.43;36.92;99381.41;1717380;83;21027;-60
2021/09/19 06:47:11;;;;;;;5.78;2.83;;;;;;;29.41;35.52;99380.48;1716542;83;20943;-59
2021/09/19 06:49:38;;;;;;;6.25;3.17;;;;;;;30.24;33.58;99383.87;1716691;83;21002;-59
2021/09/19 06:52:05;;;;;;;7.37;3.40;;;;;;;30.90;32.29;99384.28;1713065;83;21216;-60
2021/09/19 06:54:34;;;;;;;3.50;3.20;;;;;;;31.44;31.17;99383.99;1716610;83;21631;-59
2021/09/19 06:57:03;;;;;;;5.85;3.37;;;;;;;31.85;30.98;99381.75;1713245;83;20982;-58
2021/09/19 06:59:32;;;;;;;8.33;3.50;;;;;;;32.11;30.10;99375.14;1717020;83;21009;-58
2021/09/19 07:02:00;;;;;;;5.60;3.85;;;;;;;32.15;30.35;99373.22;1695124;83;20915;-59
2021/09/19 07:04:27;;;;;;;6.95;4.20;;;;;;;32.27;30.07;99372.08;1714533;83;20975;-59
2021/09/19 07:06:54;;;;;;;4.58;3.90;;;;;;;32.04;29.56;99369.55;1716791;83;21006;-60
2021/09/19 07:09:22;;;;;;;7.05;4.42;;;;;;;31.50;30.07;99371.38;1708311;83;20950;-59
2021/09/19 07:11:50;;;;;;;7.60;4.58;;;;;;;30.86;30.57;99378.48;1681382;84;20931;-59
2021/09/19 07:14:18;;;;;;;5.35;4.40;;;;;;;30.02;32.08;99381.41;1681900;85;21042;-58
2021/09/19 07:16:46;;;;;;;7.72;4.47;;;;;;;29.08;33.43;99378.53;1681740;85;21010;-59
2021/09/19 07:19:13;;;;;;;5.90;4.20;;;;;;;28.15;34.90;99370.60;1682365;85;20970;-60
2021/09/19 07:21:42;;;;;;;4.75;4.35;;;;;;;27.44;36.21;99370.52;1682021;85;21540;-59
2021/09/19 07:24:09;;;;;;;6.75;4.75;;;;;;;26.96;37.27;99375.98;1682455;85;21142;-61
2021/09/19 07:26:36;;;;;;;6.50;4.23;;;;;;;26.55;37.49;99379.35;1682207;85;20985;-59
2021/09/19 07:29:04;;;;;;;6.08;3.87;;;;;;;26.15;38.84;99380.17;1682496;85;21013;-60
2021/09/19 07:31:32;;;;;;;4.78;3.80;;;;;;;25.77;39.60;99383.50;1676944;85;20891;-60
2021/09/19 07:33:59;;;;;;;6.22;4.55;;;;;;;25.47;40.05;99388.41;1681647;84;20911;-60
2021/09/19 07:36:29;;;;;;;8.65;4.12;;;;;;;25.19;40.75;99393.14;1682397;85;21852;-59
2021/09/19 07:38:59;;;;;;;4.83;3.90;;;;;;;24.83;41.13;99389.17;1681438;85;20907;-59
2021/09/19 07:41:26;;;;;;;8.85;4.47;;;;;;;24.47;41.57;99391.41;1678348;85;21531;-58
2021/09/19 07:43:54;;;;;;;5.05;4.10;;;;;;;24.13;42.38;99386.42;1682485;85;21588;-58
2021/09/19 07:46:21;;;;;;;7.87;3.95;;;;;;;23.77;43.17;99382.27;1682193;85;21033;-59
2021/09/19 07:48:50;;;;;;;5.75;3.58;;;;;;;23.49;44.14;99386.61;1660479;85;21173;-59
2021/09/19 07:51:19;;;;;;;4.12;3.62;;;;;;;23.30;44.87;99389.16;1681602;85;21009;-58
2021/09/19 07:53:48;;;;;;;7.67;3.75;;;;;;;23.13;45.25;99391.94;1681560;85;20990;-58
2021/09/19 07:56:15;;;;;;;4.05;3.10;;;;;;;22.92;45.32;99393.42;1682610;85;21560;-58
2021/09/19 07:58:42;;;;;;;5.87;3.70;;;;;;;22.76;46.45;99390.93;1661653;85;20967;-59
2021/09/19 08:01:09;;;;;;;4.97;3.40;;;;;;;22.75;46.72;99385.25;1681779;85;21146;-60
2021/09/19 08:03:37;;;;;;;3.22;2.90;;;;;;;22.84;46.75;99387.40;1681402;85;20997;-59
2021/09/19 08:06:04;;;;;;;4.45;2.45;;;;;;;22.96;46.55;99386.73;1661283;85;21026;-60
2021/09/19 08:08:30;;;;;;;7.25;3.40;;;;;;;23.08;46.09;99384.70;1677761;85;20950;-60
2021/09/19 08:10:58;;;;;;;4.67;3.42;;;;;;;23.16;45.78;99389.38;1681595;84;21021;-59
2021/09/19 08:13:26;;;;;;;;;;;;;;;23.16;46.01;99383.91;1683249;85;21195;-59
2021/09/19 08:15:53;;;;;;;4.50;3.10;;;;;;;23.15;46.01;99384.23;1681888;85;20141;-58
2021/09/19 08:18:21;;;;;;;5.10;2.77;;;;;;;23.15;45.65;99380.13;1681838;85;20958;-59
2021/09/19 08:20:48;;;;;;;3.65;3.20;;;;;;;23.10;44.79;99378.38;1682077;85;21054;-58
2021/09/19 08:23:15;;;;;;;4.60;3.40;;;;;;;22.93;44.75;99386.02;1681426;85;20907;-59
2021/09/19 08:25:42;;;;;;;7.57;3.53;;;;;;;22.68;45.32;99380.84;1680911;85;21151;-59
2021/09/19 08:28:10;;;;;;;5.00;3.43;;;;;;;22.43;46.26;99382.46;1681851;85;21508;-59
2021/09/19 08:30:38;;;;;;;9.55;3.47;;;;;;;22.22;47.47;99379.77;1661724;85;21005;-60
2021/09/19 08:33:06;;;;;;;3.35;2.65;;;;;;;22.10;48.44;99377.41;1681664;85;20970;-59
2021/09/19 08:35:33;;;;;;;8.50;3.30;;;;;;;21.97;48.69;99374.52;1682094;85;20990;-59
2021/09/19 08:38:00;;;;;;;4.67;3.50;;;;;;;21.88;49.02;99370.98;1682034;85;21148;-59
2021/09/19 08:40:27;;;;;;;6.58;3.05;;;;;;;21.85;49.34;99375.70;1682007;84;21050;-59
2021/09/19 08:42:55;;;;;;;4.55;3.12;;;;;;;21.78;48.40;99368.55;1681761;85;20951;-59
2021/09/19 08:45:23;;;;;;;3.58;2.80;;;;;;;21.66;49.32;99371.31;1677301;85;20935;-59
2021/09/19 08:47:50;;;;;;;3.65;2.70;;;;;;;21.72;49.06;99368.45;1682077;84;21057;-60
2021/09/19 08:50:17;;;;;;;3.43;2.83;;;;;;;21.78;48.66;99362.52;1674624;85;21192;-59
2021/09/19 08:52:45;;;;;;;3.95;3.02;;;;;;;21.87;49.37;99366.64;1681727;84;20915;-59
2021/09/19 08:55:12;;;;;;;3.45;2.80;;;;;;;21.97;48.27;99361.45;1681930;85;20943;-59
2021/09/19 08:57:40;;;;;;;4.45;2.65;;;;;;;21.88;48.17;99362.23;1681676;85;20946;-61
2021/09/19 09:00:11;;;;;;;4.53;3.00;;;;;;;21.80;48.83;99358.91;1681878;85;21508;-60
2021/09/19 09:02:47;;;;;;;5.97;2.75;;;;;;;21.76;48.27;99358.50;1681024;85;21675;-58
2021/09/19 09:05:29;;;;;;;3.02;2.58;;;;;;;21.72;48.90;99354.25;1681651;85;20907;-59
2021/09/19 09:07:59;;;;;;;2.90;2.35;;;;;;;21.70;48.30;99356.48;1681436;85;21469;-60
2021/09/19 09:10:43;;;;;;;3.25;2.70;;;;;;;21.64;49.11;99364.56;1681552;83;20986;-60
2021/09/19 09:13:14;;;;;;;4.80;2.52;;;;;;;21.60;48.67;99363.05;1682175;85;20958;-60
2021/09/19 09:16:11;;;;;;;4.47;2.62;;;;;;;21.51;48.77;99357.56;1680900;85;21984;-59
2021/09/19 09:18:45;;;;;;;6.87;2.97;;;;;;;21.43;49.21;99361.59;1682505;85;20891;-62
2021/09/19 09:21:14;;;;;;;5.00;2.98;;;;;;;21.39;50.66;99360.03;1681870;85;22022;-60
2021/09/19 09:23:51;;;;;;;3.60;2.80;;;;;;;21.48;50.40;99361.44;1682205;85;21005;-59
2021/09/19 09:26:37;;;;;;;3.67;3.17;;;;;;;21.58;50.10;99355.72;1682175;85;22284;-59
2021/09/19 09:29:14;;;;;;;6.72;3.35;;;;;;;21.63;49.16;99356.16;1682427;85;21135;-60
2021/09/19 09:31:47;;;;;;;3.22;2.83;;;;;;;21.62;49.68;99351.25;1682298;85;21006;-59
2021/09/19 09:34:24;;;;;;;3.90;3.05;;;;;;;21.63;49.12;99354.23;1682010;85;21050;-59
2021/09/19 09:36:59;;;;;;;3.87;3.08;;;;;;;21.66;49.47;99349.50;1681697;85;20887;-58
2021/09/19 09:39:30;;;;;;;3.02;2.60;;;;;;;21.77;49.58;99350.57;1681938;85;20946;-60
2021/09/19 09:42:20;;;;;;;7.50;3.10;;;;;;;21.84;49.17;99342.16;1681125;85;21102;-59
2021/09/19 09:44:49;;;;;;;3.22;2.92;;;;;;;21.97;49.83;99350.53;1681809;85;20974;-58
2021/09/19 09:47:23;;;;;;;5.80;2.87;;;;;;;22.05;48.30;99353.81;1681647;85;21081;-59
2021/09/19 09:49:57;;;;;;;5.75;3.00;;;;;;;22.01;48.36;99351.48;1681980;85;20906;-58
2021/09/19 09:52:37;;;;;;;4.10;2.60;;;;;;;21.99;47.94;99353.73;1678937;85;21023;-60
2021/09/19 09:55:10;;;;;;;6.90;3.25;;;;;;;21.90;47.66;99346.11;1644047;85;21126;-59
2021/09/19 09:57:59;;;;;;;2.85;2.55;;;;;;;21.85;48.56;99347.86;1682293;85;21053;-59
2021/09/19 10:00:26;;;;;;;3.45;2.62;;;;;;;21.89;47.44;99348.02;1680518;85;20987;-58
2021/09/19 10:02:53;;;;;;;3.75;2.95;;;;;;;21.91;47.80;99347.16;1681337;85;20970;-59
2021/09/19 10:05:21;;;;;;;3.42;2.27;;;;;;;21.97;47.06;99339.05;1660160;85;21047;-59
2021/09/19 10:07:50;;;;;;;4.60;2.05;;;;;;;22.01;47.18;99331.84;1677965;85;21030;-59
2021/09/19 10:10:21;;;;;;;2.40;2.05;;;;;;;22.09;46.39;99339.78;1681653;84;20946;-59
2021/09/19 10:12:48;;;;;;;2.27;2.08;;;;;;;22.10;45.71;99335.12;1679324;85;21066;-61
2021/09/19 10:15:17;;;;;;;5.53;1.95;;;;;;;22.10;46.72;99333.21;1683422;85;21001;-60
2021/09/19 10:17:44;;;;;;;2.42;1.75;;;;;;;22.14;45.90;99330.63;1682406;85;20966;-61
2021/09/19 10:20:16;;;;;;;2.35;1.80;;;;;;;22.13;44.72;99329.02;1681711;85;21157;-60
2021/09/19 10:23:09;;;;;;;2.00;1.80;;;;;;;22.08;45.18;99332.71;1680742;85;20895;-59
2021/09/19 10:25:45;;;;;;;2.55;1.60;;;;;;;22.09;44.87;99334.33;1680375;85;20907;-59
2021/09/19 10:28:28;;;;;;;2.02;1.70;;;;;;;22.07;43.91;99332.48;1657284;85;20971;-58
2021/09/19 10:31:20;;;;;;;1.70;1.60;;;;;;;21.99;44.69;99331.91;1676968;85;21492;-61
2021/09/19 10:34:04;;;;;;;2.20;1.55;;;;;;;21.90;45.33;99335.20;1680060;85;21010;-59
2021/09/19 10:36:41;;;;;;;1.60;1.50;;;;;;;21.86;45.42;99326.83;1673955;85;21509;-59
2021/09/19 10:39:32;;;;;;;4.12;1.50;;;;;;;21.79;44.05;99326.50;1680796;85;20950;-59
2021/09/19 10:42:25;;;;;;;2.58;1.75;;;;;;;21.68;44.44;99327.37;1680109;85;21033;-59
2021/09/19 10:44:54;;;;;;;1.87;1.77;;;;;;;21.59;45.02;99323.83;1681908;85;21010;-59
2021/09/19 10:47:43;;;;;;;2.37;1.70;;;;;;;21.57;46.54;99317.87;1681816;85;21076;-59
2021/09/19 10:50:26;;;;;;;3.75;2.02;;;;;;;21.58;45.27;99322.21;1680841;85;20896;-60
2021/09/19 10:53:06;;;;;;;2.20;1.50;;;;;;;21.51;45.24;99324.84;1682039;85;20982;-60
2021/09/19 10:55:49;;;;;;;1.80;1.70;;;;;;;21.36;45.70;99321.14;1683995;83;20915;-58
2021/09/19 10:58:26;;;;;;;6.28;1.80;;;;;;;21.21;46.26;99322.37;1689638;83;21021;-59
2021/09/19 11:01:19;;;;;;;4.92;1.57;;;;;;;21.16;45.81;99334.22;1689127;83;20985;-59
2021/09/19 11:04:01;;;;;;;1.67;1.57;;;;;;;21.14;45.90;99328.83;1687427;83;20986;-60
2021/09/19 11:06:39;;;;;;;6.15;1.75;;;;;;;21.20;45.90;99330.33;1690806;83;20943;-60
2021/09/19 11:09:30;;;;;;;2.00;1.72;;;;;;;21.32;46.79;99327.01;1689507;83;21496;-60
2021/09/19 11:12:14;;;;;;;1.95;1.75;;;;;;;21.51;46.96;99322.69;1712451;82;21497;-59
2021/09/19 11:15:05;;;;;;;5.80;1.85;;;;;;;21.71;46.21;99321.27;1719589;82;20863;-59
2021/09/19 11:17:34;;;;;;;2.08;1.87;;;;;;;21.83;44.61;99321.48;1725336;82;20950;-62
2021/09/19 11:20:17;;;;;;;3.30;1.92;;;;;;;21.82;45.38;99306.22;1726288;82;20998;-59
2021/09/19 11:22:54;;;;;;;1.90;1.52;;;;;;;21.84;45.81;99302.60;1720130;82;21517;-60
2021/09/19 11:25:22;;;;;;;2.27;1.77;;;;;;;21.80;46.10;99304.93;1728213;82;21010;-60
2021/09/19 11:27:52;;;;;;;2.17;1.95;;;;;;;21.77;45.83;99302.27;1725445;82;21049;-59
2021/09/19 11:30:21;;;;;;;;;;;;;;;21.81;45.73;99299.72;1727946;82;20904;-59
2021/09/19 11:32:48;;;;;;;1.92;1.72;;;;;;;21.88;45.65;99298.13;1712657;82;20443;-58
2021/09/19 11:35:16;;;;;;;2.00;1.62;;;;;;;21.97;44.15;99302.22;1726197;82;21074;-59
2021/09/19 11:37:45;;;;;;;1.72;1.60;;;;;;;21.93;44.86;99301.82;1729847;82;21485;-59
2021/09/19 11:40:23;;;;;;;2.83;1.52;;;;;;;21.87;44.99;99299.80;1673512;82;24466;-59
2021/09/19 11:42:52;;;;;;;1.50;1.40;;;;;;;21.82;45.17;99295.31;1727205;82;21925;-59
2021/09/19 11:45:19;;;;;;;1.60;1.50;;;;;;;21.78;44.86;99299.00;1733944;82;20931;-58
2021/09/19 11:47:48;;;;;;;;;;;;;;;21.69;45.19;99298.41;1701219;82;22092;-59
2021/09/19 11:50:16;;;;;;;2.22;1.80;;;;;;;21.61;45.62;99297.86;1718335;82;20164;-59